Gordon Reid — CGBR — position and weather

sailwx.info

Track history (hours):
 
Tides and Currents Weather Stations Pressure Air Temp Water Temp Dewpoint Dewpoint Depression Visibility Wind Speed Wind Dir Waves Ship Positions

Gordon Reid

Last reported at 2016-May-22 19:28 UTC. Time now 2016-May-27 16:12 UTC.
Position N 52°15' W 128°19'.

Length 49.95 m; beam 11 m; draft 5.4 m.

Type: SAR. MMSI: 316094000.

Date/timePositionNaut miles runAvg speedWind from/ knotsBaromVisibWave heightAir tempDewpointWater temp
2016-May-22 19:28N 52°15' W 128°19'9 9.8
2016-May-22 18:33N 52°11' W 128°06'7 6.9
2016-May-22 17:30N 52°05' W 128°01'9 8.7
2016-May-22 16:30N 51°56' W 127°56'40 2.0
2016-May-21 20:27N 51°17' W 127°52'910.4
2016-May-21 19:33N 51°08' W 127°48'1111.0
2016-May-21 18:33N 51°00' W 127°36'1010.4
2016-May-21 17:33N 50°55' W 127°22'1 0.6
2016-May-21 16:33N 50°55' W 127°21'0 0.0
2016-May-21 15:33N 50°55' W 127°21'0 0.0
2016-May-21 14:33N 50°55' W 127°21'0 0.0
2016-May-21 13:27N 50°55' W 127°21'0 0.0
2016-May-21 12:33N 50°55' W 127°21'0 0.0
2016-May-21 11:33N 50°55' W 127°21'0 0.0
2016-May-21 10:33N 50°55' W 127°21'0 0.0
2016-May-21 09:33N 50°55' W 127°21'0 0.0
2016-May-21 08:33N 50°55' W 127°21'0 0.0
2016-May-21 07:33N 50°55' W 127°21'0 0.0
2016-May-21 06:33N 50°55' W 127°21'0 0.0
2016-May-21 05:33N 50°55' W 127°21'0 0.0
2016-May-21 04:33N 50°55' W 127°21'0 0.0
2016-May-21 03:33N 50°55' W 127°21'1 0.7
2016-May-21 02:33N 50°54' W 127°22'1111.0
2016-May-21 01:32N 50°44' W 127°28'1 0.4
2016-May-20 23:30N 50°43' W 127°29'0 0.0
2016-May-20 22:30N 50°43' W 127°29'0 0.0
2016-May-20 20:24N 50°43' W 127°29'0 0.0
2016-May-20 19:30N 50°43' W 127°29'0 0.0
2016-May-20 16:30N 50°43' W 127°29'0 0.0
2016-May-20 12:30N 50°43' W 127°29'0 0.0
2016-May-20 11:30N 50°43' W 127°29'0 0.0
2016-May-20 10:30N 50°43' W 127°29'0 0.0
2016-May-20 09:30N 50°43' W 127°29'0 0.0
2016-May-20 08:30N 50°43' W 127°29'0 0.0
2016-May-20 07:18N 50°43' W 127°29'0 0.0
2016-May-20 06:24N 50°43' W 127°29'0 0.0
2016-May-19 18:30N 50°43' W 127°29'0 0.0
2016-May-19 09:30N 50°43' W 127°29'0 0.0
2016-May-19 08:30N 50°43' W 127°29'0 0.0
2016-May-19 07:30N 50°43' W 127°29'0 0.0
2016-May-19 06:30N 50°43' W 127°29'0 0.0
2016-May-19 05:30N 50°43' W 127°29'0 0.0
2016-May-19 04:30N 50°43' W 127°29'0 0.0
2016-May-19 02:19N 50°43' W 127°29'1 0.1
2016-May-18 19:33N 50°43' W 127°28'0 0.1
2016-May-18 18:31N 50°43' W 127°28'0 0.0
2016-May-18 17:31N 50°43' W 127°28'0 0.0
2016-May-18 16:31N 50°43' W 127°28'2 1.9
2016-May-18 15:33N 50°45' W 127°28'10 9.6
2016-May-18 14:33N 50°51' W 127°40'0 0.0
2016-May-18 13:33N 50°51' W 127°40'0 0.0
2016-May-18 12:33N 50°51' W 127°40'0 0.0
2016-May-18 11:34N 50°51' W 127°40'0 0.0
2016-May-18 10:31N 50°51' W 127°40'0 0.0
2016-May-18 09:31N 50°51' W 127°40'0 0.0
2016-May-18 08:31N 50°51' W 127°40'0 0.0
2016-May-18 07:31N 50°51' W 127°40'0 0.0
2016-May-18 06:25N 50°51' W 127°40'0 0.0
2016-May-18 05:31N 50°51' W 127°40'0 0.0
2016-May-18 04:34N 50°51' W 127°40'0 0.0
2016-May-18 03:33N 50°51' W 127°40'0 0.0
2016-May-18 02:28N 50°51' W 127°40'0 0.0
2016-May-18 01:33N 50°51' W 127°40'0 0.0
2016-May-18 00:33N 50°51' W 127°40'0 0.0
2016-May-17 23:33N 50°51' W 127°40'0 0.0
2016-May-17 22:33N 50°51' W 127°40'0 0.0
2016-May-17 21:33N 50°51' W 127°40'0 0.0
2016-May-17 20:33N 50°51' W 127°40'0 0.0
2016-May-17 19:32N 50°51' W 127°40'0 0.0
2016-May-17 18:26N 50°51' W 127°40'0 0.0
2016-May-17 17:32N 50°51' W 127°40'0 0.0
2016-May-17 16:30N 50°51' W 127°40'0 0.0
2016-May-17 15:24N 50°51' W 127°40'0 0.0
2016-May-17 14:30N 50°51' W 127°40'0 0.0
2016-May-17 13:24N 50°51' W 127°40'0 0.0
2016-May-17 12:30N 50°51' W 127°40'0 0.0
2016-May-17 11:30N 50°51' W 127°40'0 0.0
2016-May-17 10:30N 50°51' W 127°40'0 0.0
2016-May-17 09:30N 50°51' W 127°40'0 0.0
2016-May-17 08:30N 50°51' W 127°40'0 0.0
2016-May-17 07:30N 50°51' W 127°40'0 0.0
2016-May-17 06:30N 50°51' W 127°40'0 0.0
2016-May-17 05:30N 50°51' W 127°40'0 0.0
2016-May-17 04:30N 50°51' W 127°40'0 0.0
2016-May-17 03:30N 50°51' W 127°40'0 0.0
2016-May-17 02:30N 50°51' W 127°40'0 0.0
2016-May-17 01:30N 50°51' W 127°40'1 1.0
2016-May-17 00:33N 50°50' W 127°39'8 8.0
2016-May-16 23:32N 50°45' W 127°28'3 2.7
2016-May-16 22:33N 50°47' W 127°31'5 5.5
2016-May-16 21:33N 50°49' W 127°39'6 6.0
2016-May-16 20:32N 50°51' W 127°48'  
Track history (hours):
 
Tides and Currents Weather Stations Pressure Air Temp Water Temp Dewpoint Dewpoint Depression Visibility Wind Speed Wind Dir Waves Ship Positions

Gordon Reid

Last reported at 2016-May-22 19:28 UTC. Time now 2016-May-27 16:12 UTC.
Position N 52°15' W 128°19'.

Length 49.95 m; beam 11 m; draft 5.4 m.

Type: SAR. MMSI: 316094000.

Date/timePositionNaut miles runAvg speedWind from/ knotsBaromVisibWave heightAir tempDewpointWater temp
2016-May-22 19:28N 52°15' W 128°19'9 9.8
2016-May-22 18:33N 52°11' W 128°06'7 6.9
2016-May-22 17:30N 52°05' W 128°01'9 8.7
2016-May-22 16:30N 51°56' W 127°56'40 2.0
2016-May-21 20:27N 51°17' W 127°52'910.4
2016-May-21 19:33N 51°08' W 127°48'1111.0
2016-May-21 18:33N 51°00' W 127°36'1010.4
2016-May-21 17:33N 50°55' W 127°22'1 0.6
2016-May-21 16:33N 50°55' W 127°21'0 0.0
2016-May-21 15:33N 50°55' W 127°21'0 0.0
2016-May-21 14:33N 50°55' W 127°21'0 0.0
2016-May-21 13:27N 50°55' W 127°21'0 0.0
2016-May-21 12:33N 50°55' W 127°21'0 0.0
2016-May-21 11:33N 50°55' W 127°21'0 0.0
2016-May-21 10:33N 50°55' W 127°21'0 0.0
2016-May-21 09:33N 50°55' W 127°21'0 0.0
2016-May-21 08:33N 50°55' W 127°21'0 0.0
2016-May-21 07:33N 50°55' W 127°21'0 0.0
2016-May-21 06:33N 50°55' W 127°21'0 0.0
2016-May-21 05:33N 50°55' W 127°21'0 0.0
2016-May-21 04:33N 50°55' W 127°21'0 0.0
2016-May-21 03:33N 50°55' W 127°21'1 0.7
2016-May-21 02:33N 50°54' W 127°22'1111.0
2016-May-21 01:32N 50°44' W 127°28'1 0.4
2016-May-20 23:30N 50°43' W 127°29'0 0.0
2016-May-20 22:30N 50°43' W 127°29'0 0.0
2016-May-20 20:24N 50°43' W 127°29'0 0.0
2016-May-20 19:30N 50°43' W 127°29'0 0.0
2016-May-20 16:30N 50°43' W 127°29'0 0.0
2016-May-20 12:30N 50°43' W 127°29'0 0.0
2016-May-20 11:30N 50°43' W 127°29'0 0.0
2016-May-20 10:30N 50°43' W 127°29'0 0.0
2016-May-20 09:30N 50°43' W 127°29'0 0.0
2016-May-20 08:30N 50°43' W 127°29'0 0.0
2016-May-20 07:18N 50°43' W 127°29'0 0.0
2016-May-20 06:24N 50°43' W 127°29'0 0.0
2016-May-19 18:30N 50°43' W 127°29'0 0.0
2016-May-19 09:30N 50°43' W 127°29'0 0.0
2016-May-19 08:30N 50°43' W 127°29'0 0.0
2016-May-19 07:30N 50°43' W 127°29'0 0.0
2016-May-19 06:30N 50°43' W 127°29'0 0.0
2016-May-19 05:30N 50°43' W 127°29'0 0.0
2016-May-19 04:30N 50°43' W 127°29'0 0.0
2016-May-19 02:19N 50°43' W 127°29'1 0.1
2016-May-18 19:33N 50°43' W 127°28'0 0.1
2016-May-18 18:31N 50°43' W 127°28'0 0.0
2016-May-18 17:31N 50°43' W 127°28'0 0.0
2016-May-18 16:31N 50°43' W 127°28'2 1.9
2016-May-18 15:33N 50°45' W 127°28'10 9.6
2016-May-18 14:33N 50°51' W 127°40'0 0.0
2016-May-18 13:33N 50°51' W 127°40'0 0.0
2016-May-18 12:33N 50°51' W 127°40'0 0.0
2016-May-18 11:34N 50°51' W 127°40'0 0.0
2016-May-18 10:31N 50°51' W 127°40'0 0.0
2016-May-18 09:31N 50°51' W 127°40'0 0.0
2016-May-18 08:31N 50°51' W 127°40'0 0.0
2016-May-18 07:31N 50°51' W 127°40'0 0.0
2016-May-18 06:25N 50°51' W 127°40'0 0.0
2016-May-18 05:31N 50°51' W 127°40'0 0.0
2016-May-18 04:34N 50°51' W 127°40'0 0.0
2016-May-18 03:33N 50°51' W 127°40'0 0.0
2016-May-18 02:28N 50°51' W 127°40'0 0.0
2016-May-18 01:33N 50°51' W 127°40'0 0.0
2016-May-18 00:33N 50°51' W 127°40'0 0.0
2016-May-17 23:33N 50°51' W 127°40'0 0.0
2016-May-17 22:33N 50°51' W 127°40'0 0.0
2016-May-17 21:33N 50°51' W 127°40'0 0.0
2016-May-17 20:33N 50°51' W 127°40'0 0.0
2016-May-17 19:32N 50°51' W 127°40'0 0.0
2016-May-17 18:26N 50°51' W 127°40'0 0.0
2016-May-17 17:32N 50°51' W 127°40'0 0.0
2016-May-17 16:30N 50°51' W 127°40'0 0.0
2016-May-17 15:24N 50°51' W 127°40'0 0.0
2016-May-17 14:30N 50°51' W 127°40'0 0.0
2016-May-17 13:24N 50°51' W 127°40'0 0.0
2016-May-17 12:30N 50°51' W 127°40'0 0.0
2016-May-17 11:30N 50°51' W 127°40'0 0.0
2016-May-17 10:30N 50°51' W 127°40'0 0.0
2016-May-17 09:30N 50°51' W 127°40'0 0.0
2016-May-17 08:30N 50°51' W 127°40'0 0.0
2016-May-17 07:30N 50°51' W 127°40'0 0.0
2016-May-17 06:30N 50°51' W 127°40'0 0.0
2016-May-17 05:30N 50°51' W 127°40'0 0.0
2016-May-17 04:30N 50°51' W 127°40'0 0.0
2016-May-17 03:30N 50°51' W 127°40'0 0.0
2016-May-17 02:30N 50°51' W 127°40'0 0.0
2016-May-17 01:30N 50°51' W 127°40'1 1.0
2016-May-17 00:33N 50°50' W 127°39'8 8.0
2016-May-16 23:32N 50°45' W 127°28'3 2.7
2016-May-16 22:33N 50°47' W 127°31'5 5.5
2016-May-16 21:33N 50°49' W 127°39'6 6.0
2016-May-16 20:32N 50°51' W 127°48'  

Dump ship's entire track history